createdAt,value
2019-06-01T00:00:25.374Z,43.00
2019-06-01T00:02:57.055Z,42.89
2019-06-01T00:05:25.550Z,42.83
2019-06-01T00:07:54.825Z,42.81
2019-06-01T00:10:24.160Z,43.17
2019-06-01T00:12:53.442Z,43.39
2019-06-01T00:15:22.716Z,43.62
2019-06-01T00:17:52.025Z,43.50
2019-06-01T00:20:21.230Z,43.45
2019-06-01T00:22:51.547Z,43.35
2019-06-01T00:25:21.859Z,43.23
2019-06-01T00:27:51.211Z,42.93
2019-06-01T00:30:27.033Z,42.93
2019-06-01T00:32:51.922Z,43.08
2019-06-01T00:35:21.278Z,42.93
2019-06-01T00:37:51.746Z,43.03
2019-06-01T00:40:21.123Z,42.86
2019-06-01T00:42:50.757Z,43.13
2019-06-01T00:45:20.088Z,43.13
2019-06-01T00:47:49.350Z,42.92
2019-06-01T00:50:18.775Z,42.88
2019-06-01T00:52:49.155Z,42.59
2019-06-01T00:55:18.569Z,42.68
2019-06-01T00:57:47.855Z,43.19
2019-06-01T01:00:17.322Z,43.53
2019-06-01T01:02:48.197Z,43.37
2019-06-01T01:05:19.598Z,43.39
2019-06-01T01:07:48.947Z,43.24
2019-06-01T01:10:18.240Z,43.13
2019-06-01T01:13:04.439Z,43.24
2019-06-01T01:15:34.357Z,43.34
2019-06-01T01:18:03.654Z,43.66
2019-06-01T01:20:32.994Z,43.22
2019-06-01T01:23:02.322Z,43.11
2019-06-01T01:25:31.655Z,43.50
2019-06-01T01:28:00.912Z,43.28
2019-06-01T01:30:30.235Z,43.12
2019-06-01T01:32:59.614Z,42.95
2019-06-01T01:35:28.970Z,42.77
2019-06-01T01:37:59.305Z,42.74
2019-06-01T01:40:29.286Z,42.95
2019-06-01T01:42:58.998Z,43.23
2019-06-01T01:45:28.389Z,43.27
2019-06-01T01:47:57.693Z,43.10
2019-06-01T01:50:28.567Z,42.57
2019-06-01T01:52:58.994Z,43.12
2019-06-01T01:55:28.444Z,43.27
2019-06-01T01:57:57.740Z,42.78
2019-06-01T02:00:43.599Z,42.41
2019-06-01T02:03:12.911Z,42.66
2019-06-01T02:05:42.167Z,42.98
2019-06-01T02:08:11.610Z,42.65
2019-06-01T02:10:40.957Z,42.94
2019-06-01T02:13:10.304Z,43.01
2019-06-01T02:15:40.293Z,42.98
2019-06-01T02:18:09.602Z,43.06
2019-06-01T02:20:38.861Z,42.58
2019-06-01T02:23:08.193Z,42.69
2019-06-01T02:25:37.511Z,43.06
2019-06-01T02:28:06.848Z,43.18
2019-06-01T02:30:36.934Z,43.02
2019-06-01T02:33:06.226Z,42.89
2019-06-01T02:35:35.485Z,42.92
2019-06-01T02:38:05.685Z,42.63
2019-06-01T02:40:35.413Z,42.44
2019-06-01T02:43:06.581Z,42.55
2019-06-01T02:45:36.021Z,42.29
2019-06-01T02:48:06.284Z,42.18
2019-06-01T02:50:35.975Z,42.09
2019-06-01T02:53:05.800Z,42.12
2019-06-01T02:55:35.188Z,42.04
2019-06-01T02:58:04.539Z,42.19
2019-06-01T03:00:49.165Z,42.36
2019-06-01T03:03:18.392Z,41.98
2019-06-01T03:05:47.652Z,42.46
2019-06-01T03:08:16.970Z,42.38
2019-06-01T03:10:46.263Z,42.42
2019-06-01T03:13:16.698Z,42.46
2019-06-01T03:15:46.023Z,42.26
2019-06-01T03:18:15.283Z,42.17
2019-06-01T03:20:45.187Z,41.34
2019-06-01T03:23:14.478Z,40.34
2019-06-01T03:25:43.674Z,39.53
2019-06-01T03:28:15.974Z,38.59
2019-06-01T03:30:46.187Z,36.98
2019-06-01T03:33:15.546Z,35.78
2019-06-01T03:35:44.862Z,35.05
2019-06-01T03:38:14.132Z,34.14
2019-06-01T03:40:43.319Z,33.42
2019-06-01T03:43:13.091Z,32.63
2019-06-01T03:45:42.373Z,32.10
2019-06-01T03:48:12.960Z,31.39
2019-06-01T03:50:42.513Z,31.20
2019-06-01T03:53:12.205Z,31.05
2019-06-01T03:55:41.559Z,30.72
2019-06-01T03:58:11.182Z,30.83
2019-06-01T04:00:40.635Z,30.31
2019-06-01T04:03:09.910Z,30.27
2019-06-01T04:05:39.270Z,30.29
2019-06-01T04:08:09.571Z,30.06
2019-06-01T04:10:39.064Z,29.71
2019-06-01T04:13:09.565Z,29.43
2019-06-01T04:15:38.933Z,29.08
2019-06-01T04:18:08.271Z,29.01
2019-06-01T04:20:37.539Z,28.96
2019-06-01T04:23:08.084Z,29.40
2019-06-01T04:25:37.546Z,29.53
2019-06-01T04:28:08.393Z,28.99
2019-06-01T04:30:37.677Z,29.12
2019-06-01T04:33:07.064Z,29.48
2019-06-01T04:35:36.350Z,30.27
2019-06-01T04:38:05.684Z,30.85
2019-06-01T04:40:35.083Z,32.05
2019-06-01T04:43:05.657Z,33.03
2019-06-01T04:45:35.038Z,33.86
2019-06-01T04:48:04.412Z,34.76
2019-06-01T04:50:33.975Z,35.20
2019-06-01T04:53:03.227Z,37.20
2019-06-01T04:55:32.522Z,38.43
2019-06-01T04:58:01.808Z,38.49
2019-06-01T05:00:31.047Z,39.87
2019-06-01T05:03:05.418Z,39.45
2019-06-01T05:05:31.256Z,39.60
2019-06-01T05:08:00.530Z,39.30
2019-06-01T05:10:29.862Z,40.40
2019-06-01T05:12:59.171Z,39.97
2019-06-01T05:15:28.423Z,39.51
2019-06-01T05:17:57.698Z,39.92
2019-06-01T05:20:27.050Z,40.00
2019-06-01T05:22:56.325Z,41.02
2019-06-01T05:25:25.588Z,42.19
2019-06-01T05:27:54.799Z,41.61
2019-06-01T05:30:24.121Z,42.30
2019-06-01T05:32:53.377Z,41.79
2019-06-01T05:35:22.643Z,42.87
2019-06-01T05:37:51.940Z,43.29
2019-06-01T05:40:21.130Z,42.01
2019-06-01T05:42:50.477Z,42.77
2019-06-01T05:45:22.202Z,42.40
2019-06-01T05:47:51.042Z,42.03
2019-06-01T05:50:20.353Z,41.93
2019-06-01T05:52:49.619Z,41.88
2019-06-01T05:55:18.877Z,41.31
2019-06-01T05:57:48.352Z,41.64
2019-06-01T06:00:17.602Z,41.67
2019-06-01T06:02:46.794Z,42.04
2019-06-01T06:05:16.656Z,42.70
2019-06-01T06:07:45.951Z,42.08
2019-06-01T06:10:16.049Z,42.89
2019-06-01T06:12:45.407Z,42.12
2019-06-01T06:15:15.644Z,41.82
2019-06-01T06:17:44.921Z,41.98
2019-06-01T06:20:14.228Z,42.76
2019-06-01T06:22:43.497Z,41.61
2019-06-01T06:25:14.274Z,41.56
2019-06-01T06:27:43.884Z,40.64
2019-06-01T06:30:13.408Z,40.64
2019-06-01T06:32:42.658Z,40.78
2019-06-01T06:35:13.241Z,39.93
2019-06-01T06:37:42.677Z,40.98
2019-06-01T06:40:12.054Z,39.93
2019-06-01T06:42:41.376Z,39.78
2019-06-01T06:45:10.560Z,42.67
2019-06-01T06:47:39.781Z,42.41
2019-06-01T06:50:09.182Z,41.60
2019-06-01T06:52:38.388Z,42.60
2019-06-01T06:55:07.594Z,43.13
2019-06-01T06:57:36.944Z,42.61
2019-06-01T07:00:07.417Z,43.01
2019-06-01T07:02:36.732Z,41.56
2019-06-01T07:05:07.184Z,39.04
2019-06-01T07:07:36.536Z,35.76
2019-06-01T07:10:06.104Z,31.12
2019-06-01T07:12:35.279Z,28.54
2019-06-01T07:15:05.617Z,27.69
2019-06-01T07:17:34.931Z,26.88
2019-06-01T07:20:05.449Z,25.32
2019-06-01T07:22:34.732Z,26.47
2019-06-01T07:25:05.923Z,28.11
2019-06-01T07:27:35.295Z,29.15
2019-06-01T07:30:05.264Z,30.75
2019-06-01T07:32:34.535Z,30.67
2019-06-01T07:35:05.352Z,30.67
2019-06-01T07:37:34.579Z,30.92
2019-06-01T07:40:06.039Z,28.81
2019-06-01T07:42:35.669Z,27.05
2019-06-01T07:45:08.155Z,26.39
2019-06-01T07:47:38.846Z,27.51
2019-06-01T07:50:10.697Z,29.04
2019-06-01T07:52:40.054Z,29.26
2019-06-01T07:55:09.452Z,30.11
2019-06-01T07:57:42.677Z,28.09
2019-06-01T08:00:10.220Z,27.36
2019-06-01T08:02:39.438Z,24.19
2019-06-01T08:05:08.773Z,23.69
2019-06-01T08:07:38.093Z,25.94
2019-06-01T08:10:07.424Z,26.62
2019-06-01T08:12:36.696Z,27.30
2019-06-01T08:15:07.664Z,25.41
2019-06-01T08:17:36.856Z,23.91
2019-06-01T08:20:06.280Z,23.21
2019-06-01T08:22:35.488Z,22.72
2019-06-01T08:25:06.343Z,22.42
2019-06-01T08:27:37.283Z,24.14
2019-06-01T08:30:07.301Z,25.64
2019-06-01T08:32:36.567Z,27.28
2019-06-01T08:35:09.358Z,27.25
2019-06-01T08:37:37.575Z,27.70
2019-06-01T08:40:07.163Z,28.33
2019-06-01T08:42:36.394Z,28.38
2019-06-01T08:45:06.792Z,28.95
2019-06-01T08:47:37.550Z,29.85
2019-06-01T08:50:07.681Z,29.14
2019-06-01T08:52:37.101Z,28.36
2019-06-01T08:55:07.164Z,25.51
2019-06-01T08:57:38.435Z,24.46
2019-06-01T09:00:08.940Z,23.13
2019-06-01T09:02:38.265Z,22.69
2019-06-01T09:05:23.517Z,23.26
2019-06-01T09:07:41.334Z,23.09
2019-06-01T09:10:11.005Z,22.95
2019-06-01T09:12:40.244Z,21.23
2019-06-01T09:15:09.578Z,20.70
2019-06-01T09:17:38.912Z,21.20
2019-06-01T09:20:08.234Z,21.88
2019-06-01T09:22:37.439Z,22.78
2019-06-01T09:25:06.687Z,25.82
2019-06-01T09:27:36.206Z,25.60
2019-06-01T09:30:07.477Z,24.40
2019-06-01T09:32:36.690Z,21.98
2019-06-01T09:35:08.930Z,20.96
2019-06-01T09:37:38.249Z,20.71
2019-06-01T09:40:09.144Z,20.19
2019-06-01T09:42:37.775Z,18.95
2019-06-01T09:45:07.290Z,19.25
2019-06-01T09:47:37.690Z,19.72
2019-06-01T09:50:07.207Z,19.86
2019-06-01T09:52:37.661Z,20.18
2019-06-01T09:55:07.240Z,21.40
2019-06-01T09:57:36.638Z,20.02
2019-06-01T10:00:08.840Z,19.54
2019-06-01T10:02:38.409Z,20.33
2019-06-01T10:05:07.757Z,20.90
2019-06-01T10:07:37.125Z,21.79
2019-06-01T10:10:07.100Z,22.48
2019-06-01T10:12:36.353Z,23.60
2019-06-01T10:15:07.029Z,23.63
2019-06-01T10:17:37.028Z,23.97
2019-06-01T10:20:10.383Z,23.62
2019-06-01T10:22:39.716Z,24.52
2019-06-01T10:25:08.888Z,23.55
2019-06-01T10:27:38.707Z,23.94
2019-06-01T10:30:08.536Z,24.01
2019-06-01T10:32:38.129Z,24.32
2019-06-01T10:35:07.878Z,24.79
2019-06-01T10:37:37.564Z,25.08
2019-06-01T10:40:07.001Z,24.14
2019-06-01T10:42:37.854Z,23.20
2019-06-01T10:45:07.370Z,23.98
2019-06-01T10:47:38.056Z,25.80
2019-06-01T10:50:07.741Z,25.87
2019-06-01T10:52:38.378Z,23.87
2019-06-01T10:55:07.814Z,26.75
2019-06-01T10:57:38.396Z,27.92
2019-06-01T11:00:10.635Z,29.63
2019-06-01T11:02:40.836Z,26.87
2019-06-01T11:05:10.422Z,27.75
2019-06-01T11:07:40.922Z,27.27
2019-06-01T11:10:10.364Z,27.34
2019-06-01T11:12:41.134Z,27.42
2019-06-01T11:15:10.633Z,27.74
2019-06-01T11:17:41.199Z,27.46
2019-06-01T11:20:10.742Z,28.45
2019-06-01T11:22:40.015Z,28.03
2019-06-01T11:25:09.573Z,28.57
2019-06-01T11:27:39.715Z,28.32
2019-06-01T11:30:09.147Z,28.12
2019-06-01T11:32:40.978Z,26.59
2019-06-01T11:35:09.503Z,28.06
2019-06-01T11:37:38.684Z,26.28
2019-06-01T11:40:08.375Z,24.66
2019-06-01T11:42:39.062Z,28.26
2019-06-01T11:45:08.429Z,26.84
2019-06-01T11:47:38.782Z,26.32
2019-06-01T11:50:08.192Z,27.57
2019-06-01T11:52:37.567Z,25.91
2019-06-01T11:55:08.224Z,26.72
2019-06-01T11:57:37.711Z,25.43
2019-06-01T12:00:09.816Z,26.18
2019-06-01T12:02:39.694Z,26.28
2019-06-01T12:05:08.977Z,25.52
2019-06-01T12:07:38.222Z,27.41
2019-06-01T12:10:07.691Z,25.81
2019-06-01T12:12:38.257Z,26.90
2019-06-01T12:15:07.752Z,25.98
2019-06-01T12:17:38.583Z,26.72
2019-06-01T12:20:08.378Z,25.86
2019-06-01T12:22:38.697Z,26.06
2019-06-01T12:25:08.366Z,26.89
2019-06-01T12:27:37.825Z,25.83
2019-06-01T12:30:07.516Z,27.46
2019-06-01T12:32:37.919Z,26.34
2019-06-01T12:35:08.679Z,27.05
2019-06-01T12:37:55.978Z,27.00
2019-06-01T12:40:09.897Z,27.40
2019-06-01T12:42:39.732Z,26.83
2019-06-01T12:45:10.869Z,26.01
2019-06-01T12:47:40.054Z,25.84
2019-06-01T12:50:09.402Z,26.00
2019-06-01T12:52:38.725Z,25.03
2019-06-01T12:55:07.908Z,25.02
2019-06-01T12:57:37.234Z,26.28
2019-06-01T13:00:06.956Z,26.24
2019-06-01T13:02:36.388Z,25.67
2019-06-01T13:05:08.388Z,26.07
2019-06-01T13:07:50.860Z,25.25
2019-06-01T13:10:08.551Z,23.95
2019-06-01T13:12:37.766Z,23.20
2019-06-01T13:15:07.611Z,24.02
2019-06-01T13:17:36.847Z,24.48
2019-06-01T13:20:07.436Z,24.06
2019-06-01T13:22:36.981Z,24.29
2019-06-01T13:25:08.271Z,23.53
2019-06-01T13:27:40.815Z,23.39
2019-06-01T13:30:08.797Z,23.87
2019-06-01T13:32:38.055Z,24.46
2019-06-01T13:35:08.016Z,24.38
2019-06-01T13:37:37.269Z,24.77
2019-06-01T13:40:08.128Z,23.73
2019-06-01T13:42:37.399Z,24.19
2019-06-01T13:45:07.303Z,24.92
2019-06-01T13:47:36.511Z,24.54
2019-06-01T13:50:08.015Z,25.61
2019-06-01T13:52:37.286Z,24.58
2019-06-01T13:55:07.066Z,24.67
2019-06-01T13:57:39.412Z,23.98
2019-06-01T14:00:12.844Z,23.66
2019-06-01T14:02:41.528Z,23.71
2019-06-01T14:05:10.852Z,24.16
2019-06-01T14:07:40.208Z,23.61
2019-06-01T14:10:09.501Z,24.49
2019-06-01T14:12:38.834Z,25.60
2019-06-01T14:15:08.250Z,25.33
2019-06-01T14:17:37.458Z,25.41
2019-06-01T14:20:06.900Z,25.77
2019-06-01T14:22:36.167Z,24.31
2019-06-01T14:25:13.565Z,24.84
2019-06-01T14:27:38.737Z,25.38
2019-06-01T14:30:08.065Z,25.17
2019-06-01T14:32:37.298Z,25.13
2019-06-01T14:35:08.332Z,25.51
2019-06-01T14:37:37.581Z,25.17
2019-06-01T14:40:06.995Z,25.90
2019-06-01T14:42:36.256Z,25.96
2019-06-01T14:45:07.394Z,26.15
2019-06-01T14:47:36.596Z,26.67
2019-06-01T14:50:07.144Z,26.48
2019-06-01T14:52:36.430Z,27.06
2019-06-01T14:55:06.618Z,26.38
2019-06-01T14:57:35.988Z,26.45
2019-06-01T15:00:07.537Z,27.61
2019-06-01T15:02:36.783Z,26.84
2019-06-01T15:05:08.772Z,27.00
2019-06-01T15:07:38.077Z,27.25
2019-06-01T15:10:09.033Z,27.27
2019-06-01T15:12:38.289Z,26.15
2019-06-01T15:15:07.931Z,26.67
2019-06-01T15:17:37.258Z,26.23
2019-06-01T15:20:08.261Z,26.60
2019-06-01T15:22:37.506Z,25.08
2019-06-01T15:25:10.090Z,25.88
2019-06-01T15:27:39.418Z,26.23
2019-06-01T15:30:09.984Z,26.81
2019-06-01T15:32:39.361Z,26.19
2019-06-01T15:35:08.695Z,25.48
2019-06-01T15:37:37.943Z,26.53
2019-06-01T15:40:07.897Z,25.86
2019-06-01T15:42:37.081Z,25.92
2019-06-01T15:45:07.626Z,26.14
2019-06-01T15:47:36.823Z,27.69
2019-06-01T15:50:07.908Z,27.17
2019-06-01T15:52:37.146Z,26.80
2019-06-01T15:55:07.346Z,25.99
2019-06-01T15:57:36.531Z,25.64
2019-06-01T16:00:07.177Z,25.72
2019-06-01T16:02:36.360Z,25.88
2019-06-01T16:05:08.082Z,25.88
2019-06-01T16:07:37.367Z,25.89
2019-06-01T16:10:08.367Z,26.46
2019-06-01T16:12:38.044Z,26.30
2019-06-01T16:15:10.358Z,26.67
2019-06-01T16:17:39.534Z,26.58
2019-06-01T16:20:08.787Z,26.65
2019-06-01T16:22:38.032Z,26.41
2019-06-01T16:25:07.758Z,27.00
2019-06-01T16:27:37.008Z,26.04
2019-06-01T16:30:07.219Z,27.44
2019-06-01T16:32:39.425Z,27.36
2019-06-01T16:35:08.055Z,27.44
2019-06-01T16:37:37.341Z,27.65
2019-06-01T16:40:09.992Z,27.96
2019-06-01T16:42:38.118Z,27.86
2019-06-01T16:45:08.252Z,28.42
2019-06-01T16:47:37.440Z,28.46
2019-06-01T16:50:07.652Z,28.96
2019-06-01T16:52:36.870Z,29.06
2019-06-01T16:55:07.095Z,29.38
2019-06-01T16:57:36.684Z,28.85
2019-06-01T17:00:07.180Z,28.96
2019-06-01T17:02:36.684Z,28.79
2019-06-01T17:05:07.051Z,28.69
2019-06-01T17:07:37.475Z,28.39
2019-06-01T17:10:25.100Z,28.44
2019-06-01T17:12:43.262Z,28.54
2019-06-01T17:15:11.558Z,28.15
2019-06-01T17:17:40.763Z,28.74
2019-06-01T17:20:35.754Z,28.99
2019-06-01T17:23:24.175Z,28.82
2019-06-01T17:25:37.138Z,28.98
2019-06-01T17:28:12.981Z,29.54
2019-06-01T17:30:43.967Z,29.49
2019-06-01T17:33:13.284Z,29.81
2019-06-01T17:35:42.532Z,30.25
2019-06-01T17:38:12.536Z,30.77
2019-06-01T17:40:43.355Z,30.73
2019-06-01T17:43:13.362Z,31.25
2019-06-01T17:45:42.917Z,31.54
2019-06-01T17:48:25.044Z,31.49
2019-06-01T17:50:43.227Z,32.17
2019-06-01T17:53:13.050Z,32.52
2019-06-01T17:55:43.178Z,32.19
2019-06-01T17:58:15.201Z,32.99
2019-06-01T18:00:44.824Z,33.16
2019-06-01T18:03:17.840Z,33.72
2019-06-01T18:05:47.245Z,34.19
2019-06-01T18:08:16.635Z,34.83
2019-06-01T18:10:53.838Z,35.04
2019-06-01T18:13:17.012Z,35.57
2019-06-01T18:15:49.882Z,36.30
2019-06-01T18:18:17.282Z,36.38
2019-06-01T18:20:46.522Z,36.44
2019-06-01T18:23:15.718Z,36.73
2019-06-01T18:25:44.893Z,37.06
2019-06-01T18:28:18.645Z,37.23
2019-06-01T18:30:45.171Z,37.55
2019-06-01T18:33:15.410Z,37.70
2019-06-01T18:35:44.671Z,38.11
2019-06-01T18:38:15.582Z,38.43
2019-06-01T18:40:44.807Z,38.32
2019-06-01T18:43:15.917Z,38.70
2019-06-01T18:45:45.532Z,38.83
2019-06-01T18:48:14.958Z,39.15
2019-06-01T18:50:45.128Z,39.37
2019-06-01T18:53:14.344Z,39.19
2019-06-01T18:55:43.561Z,39.03
2019-06-01T18:58:14.841Z,39.27
2019-06-01T19:00:44.277Z,39.76
2019-06-01T19:03:14.989Z,40.03
2019-06-01T19:05:44.867Z,39.75
2019-06-01T19:08:14.214Z,39.78
2019-06-01T19:10:44.426Z,40.08
2019-06-01T19:13:13.996Z,40.36
2019-06-01T19:15:43.297Z,40.33
2019-06-01T19:18:12.807Z,40.42
2019-06-01T19:20:42.058Z,40.68
2019-06-01T19:23:12.683Z,40.72
2019-06-01T19:25:42.025Z,40.81
2019-06-01T19:28:11.390Z,40.73
2019-06-01T19:30:42.118Z,40.59
2019-06-01T19:33:14.202Z,40.98
2019-06-01T19:35:42.409Z,41.12
2019-06-01T19:38:13.219Z,41.39
2019-06-01T19:40:42.848Z,41.53
2019-06-01T19:43:13.363Z,41.61
2019-06-01T19:45:42.907Z,42.02
2019-06-01T19:48:12.525Z,42.48
2019-06-01T19:50:41.861Z,42.35
2019-06-01T19:53:12.468Z,42.18
2019-06-01T19:55:42.159Z,42.03
2019-06-01T19:58:12.143Z,41.81
2019-06-01T20:00:41.428Z,42.13
2019-06-01T20:03:10.775Z,42.10
2019-06-01T20:05:45.139Z,42.57
2019-06-01T20:08:16.212Z,42.87
2019-06-01T20:10:45.653Z,42.96
2019-06-01T20:13:17.549Z,42.97
2019-06-01T20:15:47.308Z,42.94
2019-06-01T20:18:19.039Z,42.86
2019-06-01T20:20:48.556Z,43.41
2019-06-01T20:23:19.406Z,43.18
2019-06-01T20:25:49.082Z,42.95
2019-06-01T20:28:19.581Z,42.90
2019-06-01T20:30:49.002Z,43.17
2019-06-01T20:33:18.412Z,43.20
2019-06-01T20:35:49.365Z,42.97
2019-06-01T20:38:18.846Z,43.02
2019-06-01T20:40:48.988Z,42.79
2019-06-01T20:43:18.754Z,42.77
2019-06-01T20:45:48.618Z,42.87
2019-06-01T20:48:18.941Z,43.14
2019-06-01T20:50:48.310Z,43.34
2019-06-01T20:53:18.943Z,43.55
2019-06-01T20:55:48.402Z,43.25
2019-06-01T20:58:19.560Z,43.29
2019-06-01T21:00:48.881Z,43.15
2019-06-01T21:03:19.688Z,43.06
2019-06-01T21:05:49.066Z,43.26
2019-06-01T21:08:18.363Z,43.31
2019-06-01T21:10:48.292Z,43.30
2019-06-01T21:13:18.095Z,43.56
2019-06-01T21:15:47.440Z,43.85
2019-06-01T21:18:16.779Z,43.60
2019-06-01T21:20:46.147Z,43.55
2019-06-01T21:23:16.562Z,43.44
2019-06-01T21:25:46.206Z,43.64
2019-06-01T21:28:17.651Z,43.64
2019-06-01T21:30:46.619Z,43.57
2019-06-01T21:33:16.973Z,43.25
2019-06-01T21:35:46.390Z,43.15
2019-06-01T21:38:15.745Z,43.14
2019-06-01T21:40:45.201Z,43.08
2019-06-01T21:43:26.035Z,43.40
2019-06-01T21:45:45.744Z,43.16
2019-06-01T21:48:15.584Z,43.44
2019-06-01T21:50:45.059Z,43.75
2019-06-01T21:53:15.850Z,43.84
2019-06-01T21:55:45.344Z,43.85
2019-06-01T21:58:14.554Z,43.37
2019-06-01T22:00:44.471Z,43.43
2019-06-01T22:03:13.864Z,43.85
2019-06-01T22:05:43.145Z,43.67
2019-06-01T22:08:12.554Z,43.87
2019-06-01T22:10:41.968Z,43.77
2019-06-01T22:13:18.566Z,43.52
2019-06-01T22:15:42.525Z,44.07
2019-06-01T22:18:11.984Z,44.29
2019-06-01T22:20:41.397Z,44.48
2019-06-01T22:23:11.806Z,44.03
2019-06-01T22:25:41.752Z,43.84
2019-06-01T22:28:11.181Z,44.15
2019-06-01T22:30:40.709Z,44.05
2019-06-01T22:33:10.068Z,44.41
2019-06-01T22:35:39.491Z,44.88
2019-06-01T22:38:08.824Z,44.74
2019-06-01T22:40:38.221Z,44.34
2019-06-01T22:43:07.593Z,44.55
2019-06-01T22:45:37.115Z,44.47
2019-06-01T22:48:06.530Z,43.96
2019-06-01T22:50:35.857Z,44.79
2019-06-01T22:53:05.389Z,45.00
2019-06-01T22:55:34.651Z,44.60
2019-06-01T22:58:03.998Z,44.98
2019-06-01T23:00:33.464Z,44.98
2019-06-01T23:03:02.760Z,44.96
2019-06-01T23:05:32.240Z,44.93
2019-06-01T23:08:01.596Z,44.07
2019-06-01T23:10:35.168Z,44.10
2019-06-01T23:13:02.294Z,43.68
2019-06-01T23:15:31.943Z,43.98
2019-06-01T23:18:01.302Z,43.92
2019-06-01T23:20:32.179Z,43.79
2019-06-01T23:23:01.613Z,43.55
2019-06-01T23:25:31.184Z,43.50
2019-06-01T23:28:00.468Z,43.13
2019-06-01T23:30:30.287Z,43.41
2019-06-01T23:32:59.707Z,43.35
2019-06-01T23:35:28.984Z,43.23
2019-06-01T23:37:58.830Z,44.23
2019-06-01T23:40:28.729Z,44.80
2019-06-01T23:42:57.968Z,44.74
2019-06-01T23:45:27.352Z,44.38
2019-06-01T23:47:56.861Z,44.51
2019-06-01T23:50:27.162Z,44.33
2019-06-01T23:53:10.433Z,44.03
2019-06-01T23:55:27.814Z,43.61
2019-06-01T23:57:57.160Z,44.01
